Albany, New York
Traffic Map
Current Weather Conditions
Albany, New York
Overcast
Overcast
34°
Feels Like: 25°
Wind Chill: 25° Ceiling: 1300
Heat Index: 34° Visibility: 10mi
Dew Point: 28° Wind: 13mph
Humidity: 79% Direction: 160° (SSE)
Pressure: 30.43in Gusts: 18mph
Raw Report DataKALB 231816Z 16011G16KT 10SM BKN013 BKN020 OVC049 01/M02 A3043 RMK AO2 RAE00SNE00 PRESFR SHRA DSNT W-NW P0000 T00111022
Traffic Incident Summary
Active as of:
Severity:
Category:
InformationThere was an issue retrieving the traffic information for this location. Please try a different location or try again shortly.
Advertisements